createdAt,value
2022-08-16T00:02:30.670Z,17.55
2022-08-16T00:04:59.689Z,22.55
2022-08-16T00:07:29.323Z,24.90
2022-08-16T00:10:00.138Z,19.02
2022-08-16T00:12:29.764Z,20.92
2022-08-16T00:14:59.302Z,18.33
2022-08-16T00:17:26.806Z,17.45
2022-08-16T00:19:56.245Z,18.17
2022-08-16T00:22:27.770Z,18.70
2022-08-16T00:27:23.036Z,15.85
2022-08-16T00:30:08.335Z,18.63
2022-08-16T00:32:38.386Z,18.85
2022-08-16T00:35:15.337Z,16.85
2022-08-16T00:37:58.363Z,21.33
2022-08-16T00:40:43.953Z,17.92
2022-08-16T00:43:40.713Z,17.83
2022-08-16T00:46:32.943Z,16.52
2022-08-16T00:49:05.774Z,18.77
2022-08-16T00:51:32.961Z,14.43
2022-08-16T00:54:00.769Z,15.85
2022-08-16T00:56:58.342Z,15.23
2022-08-16T00:59:21.896Z,17.08
2022-08-16T01:04:29.513Z,15.60
2022-08-16T01:07:01.806Z,16.38
2022-08-16T01:09:37.321Z,18.02
2022-08-16T01:12:08.492Z,17.48
2022-08-16T01:14:41.525Z,16.48
2022-08-16T01:17:12.659Z,19.13
2022-08-16T01:19:44.407Z,16.92
2022-08-16T01:22:47.814Z,19.45
2022-08-16T01:25:33.984Z,17.75
2022-08-16T01:28:07.406Z,16.00
2022-08-16T01:30:49.535Z,15.50
2022-08-16T01:33:19.238Z,18.70
2022-08-16T01:35:52.634Z,18.38
2022-08-16T01:38:57.449Z,18.25
2022-08-16T01:41:30.021Z,16.58
2022-08-16T01:43:57.184Z,17.20
2022-08-16T01:46:42.674Z,16.23
2022-08-16T01:49:43.287Z,16.15
2022-08-16T01:52:29.231Z,17.58
2022-08-16T01:54:57.652Z,16.17
2022-08-16T01:57:24.829Z,16.95
2022-08-16T01:59:54.752Z,13.23
2022-08-16T02:02:27.094Z,17.30
2022-08-16T02:04:57.417Z,16.70
2022-08-16T02:07:24.535Z,18.85
2022-08-16T02:09:56.978Z,20.92
2022-08-16T02:12:50.817Z,18.17
2022-08-16T02:15:17.287Z,18.98
2022-08-16T02:17:52.666Z,14.93
2022-08-16T02:20:26.122Z,15.18
2022-08-16T02:22:55.228Z,17.00
2022-08-16T02:25:23.538Z,16.23
2022-08-16T02:27:51.510Z,17.77
2022-08-16T02:30:37.058Z,13.80
2022-08-16T02:33:11.544Z,17.42
2022-08-16T02:35:53.736Z,15.90
2022-08-16T02:38:22.693Z,17.23
2022-08-16T02:40:49.569Z,19.08
2022-08-16T02:43:16.519Z,17.25
2022-08-16T02:45:43.677Z,17.70
2022-08-16T02:48:28.021Z,16.63
2022-08-16T02:51:06.415Z,18.48
2022-08-16T02:53:43.282Z,18.83
2022-08-16T02:56:14.996Z,18.27
2022-08-16T03:01:24.653Z,16.48
2022-08-16T03:04:41.160Z,18.73
2022-08-16T03:06:47.557Z,19.35
2022-08-16T03:09:16.316Z,17.33
2022-08-16T03:11:44.886Z,18.63
2022-08-16T03:14:12.780Z,14.02
2022-08-16T03:16:42.346Z,18.65
2022-08-16T03:19:48.391Z,14.18
2022-08-16T03:22:18.858Z,18.40
2022-08-16T03:24:57.363Z,17.85
2022-08-16T03:27:25.450Z,18.42
2022-08-16T03:29:59.267Z,16.00
2022-08-16T03:32:26.781Z,19.35
2022-08-16T03:34:54.113Z,18.30
2022-08-16T03:37:21.240Z,13.98
2022-08-16T03:39:48.147Z,15.45
2022-08-16T03:42:23.330Z,15.10
2022-08-16T03:44:50.439Z,17.77
2022-08-16T03:47:19.750Z,17.70
2022-08-16T03:49:52.362Z,16.55
2022-08-16T03:52:23.567Z,18.83
2022-08-16T03:54:53.232Z,17.70
2022-08-16T03:57:32.087Z,17.15
2022-08-16T04:00:20.496Z,16.60
2022-08-16T04:03:07.349Z,20.42
2022-08-16T04:05:37.845Z,17.75
2022-08-16T04:08:15.141Z,15.95
2022-08-16T04:10:52.813Z,20.40
2022-08-16T04:13:59.127Z,16.90
2022-08-16T04:16:08.052Z,20.00
2022-08-16T04:18:38.740Z,16.75
2022-08-16T04:21:06.186Z,18.00
2022-08-16T04:23:33.179Z,17.23
2022-08-16T04:26:01.841Z,14.80
2022-08-16T04:28:54.531Z,18.17
2022-08-16T04:31:16.704Z,20.00
2022-08-16T04:33:50.906Z,16.05
2022-08-16T04:36:20.250Z,16.42
2022-08-16T04:38:50.142Z,18.85
2022-08-16T04:41:19.394Z,15.25
2022-08-16T04:43:59.960Z,21.75
2022-08-16T04:47:00.789Z,17.00
2022-08-16T04:49:13.833Z,19.30
2022-08-16T04:51:43.997Z,17.67
2022-08-16T04:54:20.847Z,22.55
2022-08-16T04:56:48.716Z,15.93
2022-08-16T04:59:15.691Z,14.73
2022-08-16T05:01:58.304Z,17.40
2022-08-16T05:04:25.869Z,19.95
2022-08-16T05:06:58.028Z,16.90
2022-08-16T05:09:24.910Z,20.15
2022-08-16T05:11:51.866Z,18.27
2022-08-16T05:14:20.320Z,21.50
2022-08-16T05:17:05.581Z,18.38
2022-08-16T05:19:35.935Z,14.48
2022-08-16T05:22:03.854Z,14.25
2022-08-16T05:24:31.472Z,23.38
2022-08-16T05:26:58.411Z,15.50
2022-08-16T05:29:57.417Z,16.83
2022-08-16T05:32:32.776Z,15.13
2022-08-16T05:34:59.217Z,18.45
2022-08-16T05:37:26.784Z,15.82
2022-08-16T05:40:06.928Z,17.77
2022-08-16T05:42:35.764Z,17.25
2022-08-16T05:45:22.090Z,20.05
2022-08-16T05:47:59.523Z,15.82
2022-08-16T05:50:28.327Z,22.13
2022-08-16T05:53:01.659Z,16.23
2022-08-16T05:55:28.596Z,16.80
2022-08-16T05:57:57.212Z,17.67
2022-08-16T06:00:25.307Z,14.85
2022-08-16T06:02:52.539Z,14.57
2022-08-16T06:05:19.831Z,17.50
2022-08-16T06:07:58.373Z,14.93
2022-08-16T06:10:33.175Z,15.73
2022-08-16T06:13:00.306Z,18.48
2022-08-16T06:15:27.571Z,18.05
2022-08-16T06:17:59.053Z,20.88
2022-08-16T06:20:35.168Z,22.15
2022-08-16T06:23:16.845Z,17.02
2022-08-16T06:25:44.280Z,17.85
2022-08-16T06:28:35.791Z,19.88
2022-08-16T06:31:05.829Z,16.73
2022-08-16T06:33:41.997Z,15.88
2022-08-16T06:36:10.608Z,18.33
2022-08-16T06:38:38.758Z,14.10
2022-08-16T06:41:23.316Z,18.38
2022-08-16T06:43:54.118Z,13.75
2022-08-16T06:46:31.936Z,17.50
2022-08-16T06:49:00.697Z,14.65
2022-08-16T06:51:45.680Z,21.13
2022-08-16T06:54:14.901Z,17.00
2022-08-16T06:56:42.635Z,17.15
2022-08-16T06:59:10.634Z,16.08
2022-08-16T07:01:43.071Z,15.38
2022-08-16T07:04:13.451Z,15.10
2022-08-16T07:07:00.964Z,16.27
2022-08-16T07:09:29.745Z,14.73
2022-08-16T07:12:03.223Z,16.10
2022-08-16T07:14:31.246Z,13.00
2022-08-16T07:16:59.941Z,12.95
2022-08-16T07:20:03.991Z,14.10
2022-08-16T07:22:38.767Z,15.10
2022-08-16T07:25:12.029Z,11.18
2022-08-16T07:27:40.061Z,10.40
2022-08-16T07:30:45.647Z,13.23
2022-08-16T07:33:00.367Z,13.13
2022-08-16T07:35:27.323Z,11.25
2022-08-16T07:37:54.423Z,13.93
2022-08-16T07:40:36.937Z,14.18
2022-08-16T07:43:08.695Z,11.32
2022-08-16T07:45:37.102Z,9.43
2022-08-16T07:48:11.106Z,15.20
2022-08-16T07:50:57.851Z,12.63
2022-08-16T07:53:28.932Z,13.48
2022-08-16T07:55:56.567Z,15.15
2022-08-16T07:58:34.167Z,13.75
2022-08-16T08:01:10.585Z,16.60
2022-08-16T08:03:48.468Z,16.63
2022-08-16T08:06:20.978Z,16.38
2022-08-16T08:08:57.482Z,15.38
2022-08-16T08:11:28.237Z,15.38
2022-08-16T08:13:57.585Z,11.88
2022-08-16T08:16:31.468Z,14.07
2022-08-16T08:19:02.892Z,24.10
2022-08-16T08:24:18.103Z,13.07
2022-08-16T08:26:50.380Z,15.85
2022-08-16T08:29:22.945Z,13.32
2022-08-16T08:31:53.218Z,15.68
2022-08-16T08:34:22.155Z,15.25
2022-08-16T08:36:54.097Z,13.88
2022-08-16T08:39:22.568Z,17.52
2022-08-16T08:41:50.425Z,16.10
2022-08-16T08:44:29.007Z,12.65
2022-08-16T08:47:02.012Z,11.60
2022-08-16T08:49:46.740Z,11.40
2022-08-16T08:52:35.136Z,14.63
2022-08-16T08:55:10.318Z,12.93
2022-08-16T08:57:42.129Z,16.35
2022-08-16T09:00:13.637Z,10.93
2022-08-16T09:02:44.401Z,17.02
2022-08-16T09:05:16.353Z,15.52
2022-08-16T09:08:01.326Z,15.07
2022-08-16T09:10:31.593Z,13.80
2022-08-16T09:13:01.425Z,16.77
2022-08-16T09:15:33.196Z,13.82
2022-08-16T09:18:24.518Z,14.23
2022-08-16T09:20:59.432Z,17.70
2022-08-16T09:23:29.439Z,13.88
2022-08-16T09:25:56.437Z,20.02
2022-08-16T09:29:15.269Z,16.65
2022-08-16T09:31:10.934Z,14.02
2022-08-16T09:33:39.362Z,12.25
2022-08-16T09:36:12.330Z,16.08
2022-08-16T09:38:59.857Z,15.13
2022-08-16T09:43:59.781Z,12.90
2022-08-16T09:46:44.585Z,10.38
2022-08-16T09:49:12.799Z,14.15
2022-08-16T09:51:40.403Z,19.48
2022-08-16T09:54:09.739Z,12.60
2022-08-16T09:56:39.490Z,14.77
2022-08-16T09:59:21.055Z,17.98
2022-08-16T10:01:51.688Z,28.73
2022-08-16T10:04:31.699Z,22.00
2022-08-16T10:07:15.317Z,15.55
2022-08-16T10:09:53.955Z,21.70
2022-08-16T10:12:46.032Z,13.10
2022-08-16T10:15:21.035Z,15.23
2022-08-16T10:18:00.212Z,17.02
2022-08-16T10:20:41.068Z,11.60
2022-08-16T10:23:17.309Z,13.05
2022-08-16T10:27:16.383Z,14.20
2022-08-16T10:28:39.852Z,14.35
2022-08-16T10:31:09.088Z,16.83
2022-08-16T10:33:41.903Z,13.57
2022-08-16T10:36:12.212Z,17.25
2022-08-16T10:38:58.898Z,14.55
2022-08-16T10:41:25.780Z,13.73
2022-08-16T10:43:52.726Z,14.77
2022-08-16T10:46:39.189Z,12.15
2022-08-16T10:49:06.436Z,15.30
2022-08-16T10:52:00.787Z,13.60
2022-08-16T10:54:29.277Z,10.90
2022-08-16T10:57:03.986Z,15.48
2022-08-16T10:59:45.985Z,13.30
2022-08-16T11:03:37.432Z,13.07
2022-08-16T11:05:12.436Z,18.08
2022-08-16T11:07:51.609Z,13.93
2022-08-16T11:19:06.456Z,17.80
2022-08-16T11:22:39.155Z,17.48
2022-08-16T11:24:42.628Z,19.77
2022-08-16T11:27:23.356Z,14.30
2022-08-16T11:29:56.701Z,14.63
2022-08-16T11:32:31.474Z,17.85
2022-08-16T11:35:15.050Z,13.52
2022-08-16T11:38:47.285Z,20.08
2022-08-16T11:40:52.808Z,12.87
2022-08-16T11:43:24.939Z,20.30
2022-08-16T11:45:55.317Z,11.55
2022-08-16T11:48:29.038Z,14.93
2022-08-16T11:50:56.457Z,12.52
2022-08-16T11:53:24.362Z,16.17
2022-08-16T11:55:54.958Z,18.75
2022-08-16T11:58:25.428Z,15.02
2022-08-16T12:00:55.007Z,13.18
2022-08-16T12:03:34.658Z,18.60
2022-08-16T12:06:30.395Z,14.23
2022-08-16T12:09:00.981Z,14.90
2022-08-16T12:11:31.398Z,14.88
2022-08-16T12:14:01.114Z,13.48
2022-08-16T12:16:31.264Z,20.27
2022-08-16T12:19:06.199Z,20.55
2022-08-16T12:21:58.420Z,14.90
2022-08-16T12:24:24.396Z,13.45
2022-08-16T12:26:52.642Z,11.35
2022-08-16T12:29:21.124Z,12.93
2022-08-16T12:32:01.731Z,17.42
2022-08-16T12:34:38.593Z,13.55
2022-08-16T12:37:17.737Z,15.48
2022-08-16T12:39:50.817Z,13.18
2022-08-16T12:42:20.556Z,13.63
2022-08-16T12:44:48.605Z,15.93
2022-08-16T12:47:37.204Z,13.82
2022-08-16T12:50:10.593Z,11.35
2022-08-16T12:52:48.938Z,16.73
2022-08-16T12:55:20.566Z,11.60
2022-08-16T12:57:58.570Z,16.67
2022-08-16T13:00:33.327Z,14.57
2022-08-16T13:03:03.036Z,17.05
2022-08-16T13:05:36.706Z,19.45
2022-08-16T13:08:03.883Z,13.23
2022-08-16T13:10:36.973Z,19.83
2022-08-16T13:13:06.517Z,11.38
2022-08-16T13:15:36.247Z,14.65
2022-08-16T13:18:24.303Z,13.77
2022-08-16T13:20:54.489Z,15.10
2022-08-16T13:23:23.393Z,17.02
2022-08-16T13:25:51.888Z,14.88
2022-08-16T13:30:52.172Z,15.43
2022-08-16T13:33:30.558Z,13.10
2022-08-16T13:36:00.383Z,12.20
2022-08-16T13:38:31.469Z,14.98
2022-08-16T13:41:05.294Z,15.57
2022-08-16T13:43:35.858Z,21.02
2022-08-16T13:46:04.365Z,15.30
2022-08-16T13:48:43.111Z,18.85
2022-08-16T13:51:18.011Z,14.10
2022-08-16T13:53:59.395Z,17.05
2022-08-16T13:56:37.061Z,13.98
2022-08-16T13:59:19.198Z,14.57
2022-08-16T14:01:55.422Z,16.45
2022-08-16T14:04:30.161Z,16.20
2022-08-16T14:06:59.966Z,17.23
2022-08-16T14:09:29.064Z,15.75
2022-08-16T14:12:00.678Z,16.80
2022-08-16T14:14:29.990Z,19.30
2022-08-16T14:17:00.015Z,16.35
2022-08-16T14:19:29.668Z,18.42
2022-08-16T14:22:14.639Z,17.02
2022-08-16T14:27:18.061Z,17.50
2022-08-16T14:29:49.244Z,16.02
2022-08-16T14:32:32.667Z,17.48
2022-08-16T14:35:07.472Z,21.13
2022-08-16T14:37:35.318Z,31.55
2022-08-16T14:40:03.379Z,18.10
2022-08-16T14:42:30.966Z,14.45
2022-08-16T14:45:00.494Z,19.48
2022-08-16T14:47:34.264Z,16.95
2022-08-16T14:50:02.783Z,17.73
2022-08-16T14:52:53.950Z,18.27
2022-08-16T14:55:17.652Z,22.65
2022-08-16T14:57:47.531Z,22.23
2022-08-16T15:00:15.722Z,18.58
2022-08-16T15:02:49.858Z,18.27
2022-08-16T15:05:23.139Z,18.40
2022-08-16T15:07:51.574Z,21.95
2022-08-16T15:10:23.863Z,20.23
2022-08-16T15:12:56.322Z,18.13
2022-08-16T15:15:27.951Z,16.70
2022-08-16T15:17:56.647Z,18.25
2022-08-16T15:20:30.007Z,22.85
2022-08-16T15:22:59.828Z,22.27
2022-08-16T15:25:34.198Z,18.60
2022-08-16T15:28:04.829Z,19.40
2022-08-16T15:30:57.748Z,21.50
2022-08-16T15:33:25.448Z,18.45
2022-08-16T15:35:54.144Z,19.63
2022-08-16T15:38:56.865Z,17.98
2022-08-16T15:41:43.162Z,19.38
2022-08-16T15:44:14.219Z,18.42
2022-08-16T15:46:55.492Z,17.52
2022-08-16T15:49:38.117Z,23.55
2022-08-16T15:52:12.452Z,20.65
2022-08-16T15:54:53.180Z,23.85
2022-08-16T15:57:22.952Z,20.27
2022-08-16T15:59:52.485Z,20.38
2022-08-16T16:02:29.164Z,19.17
2022-08-16T16:05:04.575Z,18.35
2022-08-16T16:07:33.482Z,23.92
2022-08-16T16:10:03.882Z,23.55
2022-08-16T16:12:51.715Z,19.00
2022-08-16T16:15:22.668Z,17.67
2022-08-16T16:17:51.062Z,18.98
2022-08-16T16:20:27.570Z,19.25
2022-08-16T16:23:04.251Z,17.58
2022-08-16T16:25:37.261Z,20.58
2022-08-16T16:28:04.109Z,17.65
2022-08-16T16:30:44.791Z,19.52
2022-08-16T16:33:20.859Z,24.45
2022-08-16T16:35:55.458Z,27.00
2022-08-16T16:38:30.638Z,18.15
2022-08-16T16:41:08.958Z,22.67
2022-08-16T16:43:42.055Z,18.67
2022-08-16T16:46:38.979Z,19.70
2022-08-16T16:48:59.992Z,18.77
2022-08-16T16:51:28.009Z,21.20
2022-08-16T16:53:57.015Z,22.60
2022-08-16T16:56:30.192Z,22.92
2022-08-16T16:59:06.083Z,21.77
2022-08-16T17:01:56.940Z,23.20
2022-08-16T17:04:31.984Z,21.70
2022-08-16T17:07:03.582Z,21.25
2022-08-16T17:09:30.715Z,22.47
2022-08-16T17:11:58.625Z,21.67
2022-08-16T17:14:33.813Z,22.50
2022-08-16T17:17:08.751Z,26.45
2022-08-16T17:19:41.188Z,27.73
2022-08-16T17:22:20.594Z,21.75
2022-08-16T17:24:52.299Z,22.48
2022-08-16T17:27:33.104Z,24.00
2022-08-16T17:30:16.293Z,21.63
2022-08-16T17:32:54.645Z,22.85
2022-08-16T17:35:40.654Z,25.15
2022-08-16T17:38:09.403Z,25.55
2022-08-16T17:40:54.993Z,22.58
2022-08-16T17:43:34.078Z,29.60
2022-08-16T17:46:04.317Z,23.45
2022-08-16T17:48:32.158Z,24.17
2022-08-16T17:50:59.906Z,25.85
2022-08-16T17:53:27.203Z,24.27
2022-08-16T17:55:54.690Z,26.67
2022-08-16T17:58:24.138Z,25.33
2022-08-16T18:00:54.220Z,25.73
2022-08-16T18:04:02.597Z,31.60
2022-08-16T18:06:13.926Z,27.67
2022-08-16T18:08:45.114Z,28.70
2022-08-16T18:11:25.625Z,26.25
2022-08-16T18:13:54.249Z,26.20
2022-08-16T18:16:21.029Z,27.30
2022-08-16T18:18:47.849Z,26.80
2022-08-16T18:21:34.274Z,29.90
2022-08-16T18:24:01.281Z,25.75
2022-08-16T18:26:28.600Z,26.15
2022-08-16T18:28:55.406Z,25.10
2022-08-16T18:31:22.356Z,29.30
2022-08-16T18:33:49.520Z,28.60
2022-08-16T18:36:21.903Z,29.63
2022-08-16T18:38:50.038Z,27.90
2022-08-16T18:41:17.929Z,27.40
2022-08-16T18:44:24.216Z,27.80
2022-08-16T18:46:31.673Z,33.47
2022-08-16T18:48:58.733Z,32.97
2022-08-16T18:51:25.981Z,34.30
2022-08-16T18:53:53.477Z,30.92
2022-08-16T18:56:20.601Z,34.03
2022-08-16T18:58:47.435Z,32.15
2022-08-16T19:01:14.508Z,32.95
2022-08-16T19:03:41.411Z,35.33
2022-08-16T19:06:13.839Z,30.90
2022-08-16T19:08:43.524Z,32.92
2022-08-16T19:11:15.380Z,33.28
2022-08-16T19:13:44.271Z,27.65
2022-08-16T19:16:13.200Z,27.67
2022-08-16T19:18:40.121Z,28.55
2022-08-16T19:21:08.903Z,27.02
2022-08-16T19:23:37.751Z,28.60
2022-08-16T19:26:23.411Z,26.98
2022-08-16T19:28:59.891Z,26.42
2022-08-16T19:31:33.092Z,27.20
2022-08-16T19:34:01.412Z,25.48
2022-08-16T19:36:34.136Z,28.92
2022-08-16T19:39:14.222Z,24.50
2022-08-16T19:41:44.490Z,27.20
2022-08-16T19:44:11.634Z,27.85
2022-08-16T19:46:41.780Z,30.17
2022-08-16T19:49:08.668Z,26.25
2022-08-16T19:51:35.677Z,32.55
2022-08-16T19:54:04.908Z,24.00
2022-08-16T19:56:31.743Z,31.50
2022-08-16T20:01:46.363Z,25.73
2022-08-16T20:04:13.572Z,25.70
2022-08-16T20:06:41.913Z,26.05
2022-08-16T20:09:10.541Z,24.00
2022-08-16T20:11:41.530Z,26.33
2022-08-16T20:14:08.471Z,25.40
2022-08-16T20:16:35.889Z,25.73
2022-08-16T20:19:04.581Z,19.55
2022-08-16T20:21:34.499Z,24.05
2022-08-16T20:24:31.966Z,25.08
2022-08-16T20:26:48.577Z,25.50
2022-08-16T20:29:15.577Z,21.27
2022-08-16T20:31:42.517Z,23.55
2022-08-16T20:34:09.359Z,26.42
2022-08-16T20:36:36.318Z,23.15
2022-08-16T20:39:04.910Z,22.27
2022-08-16T20:41:31.866Z,26.92
2022-08-16T20:43:58.758Z,25.95
2022-08-16T20:46:26.740Z,23.33
2022-08-16T20:48:53.554Z,23.27
2022-08-16T20:51:20.373Z,21.83
2022-08-16T20:53:47.174Z,25.98
2022-08-16T20:56:14.169Z,26.02
2022-08-16T20:58:41.023Z,22.70
2022-08-16T21:01:08.191Z,22.17
2022-08-16T21:03:35.634Z,23.23
2022-08-16T21:06:02.908Z,22.25
2022-08-16T21:08:53.512Z,25.23
2022-08-16T21:11:17.867Z,24.02
2022-08-16T21:13:44.702Z,22.13
2022-08-16T21:16:11.773Z,28.58
2022-08-16T21:18:38.816Z,23.20
2022-08-16T21:21:05.661Z,21.77
2022-08-16T21:23:32.532Z,22.45
2022-08-16T21:25:59.929Z,22.98
2022-08-16T21:28:39.325Z,23.17
2022-08-16T21:31:09.591Z,21.58
2022-08-16T21:33:36.528Z,23.67
2022-08-16T21:36:03.605Z,22.02
2022-08-16T21:38:31.098Z,21.13
2022-08-16T21:41:03.430Z,21.63
2022-08-16T21:43:32.048Z,25.92
2022-08-16T21:46:03.887Z,23.85
2022-08-16T21:48:35.278Z,21.63
2022-08-16T21:51:21.193Z,21.45
2022-08-16T21:53:48.209Z,22.48
2022-08-16T21:56:17.191Z,25.60
2022-08-16T21:58:46.394Z,21.67
2022-08-16T22:01:15.288Z,22.25
2022-08-16T22:03:42.734Z,24.73
2022-08-16T22:06:13.167Z,20.73
2022-08-16T22:08:51.140Z,25.35
2022-08-16T22:11:23.941Z,21.75
2022-08-16T22:13:57.847Z,22.10
2022-08-16T22:16:32.274Z,20.30
2022-08-16T22:19:00.068Z,25.17
2022-08-16T22:21:27.167Z,23.88
2022-08-16T22:23:57.039Z,23.38
2022-08-16T22:26:31.709Z,22.47
2022-08-16T22:29:08.630Z,26.35
2022-08-16T22:31:37.316Z,22.58
2022-08-16T22:34:04.492Z,24.80
2022-08-16T22:36:33.176Z,23.73
2022-08-16T22:39:03.557Z,22.48
2022-08-16T22:41:32.717Z,22.30
2022-08-16T22:44:01.358Z,18.23
2022-08-16T22:46:28.599Z,20.80
2022-08-16T22:48:55.502Z,21.60
2022-08-16T22:51:26.090Z,20.25
2022-08-16T22:53:54.028Z,22.48
2022-08-16T22:56:22.464Z,22.60
2022-08-16T22:58:50.138Z,21.73
2022-08-16T23:01:19.495Z,19.98
2022-08-16T23:03:46.476Z,28.65
2022-08-16T23:06:14.566Z,24.45
2022-08-16T23:08:43.066Z,21.30
2022-08-16T23:11:19.530Z,23.20
2022-08-16T23:13:52.408Z,24.92
2022-08-16T23:16:33.432Z,22.92
2022-08-16T23:19:10.837Z,22.77
2022-08-16T23:21:40.842Z,19.73
2022-08-16T23:24:08.652Z,22.73
2022-08-16T23:26:48.150Z,20.20
2022-08-16T23:29:23.157Z,21.67
2022-08-16T23:31:58.624Z,20.77
2022-08-16T23:34:28.172Z,21.55
2022-08-16T23:36:55.591Z,20.67
2022-08-16T23:39:23.613Z,23.00
2022-08-16T23:41:50.892Z,22.70
2022-08-16T23:44:57.362Z,22.92
2022-08-16T23:47:06.274Z,24.75
2022-08-16T23:50:00.199Z,22.98
2022-08-16T23:52:53.083Z,25.10
2022-08-16T23:55:08.520Z,28.60
2022-08-16T23:57:35.351Z,24.00
